createdAt,value
2023-05-10T00:06:18.189Z,3.63
2023-05-10T00:16:20.756Z,3.70
2023-05-10T00:26:23.192Z,3.43
2023-05-10T00:36:28.905Z,3.85
2023-05-10T00:46:31.948Z,3.70
2023-05-10T00:56:35.025Z,3.90
2023-05-10T01:06:37.622Z,3.47
2023-05-10T01:16:43.165Z,3.57
2023-05-10T01:27:10.403Z,3.67
2023-05-10T01:37:21.458Z,3.87
2023-05-10T01:47:43.490Z,3.42
2023-05-10T01:57:50.658Z,3.80
2023-05-10T02:07:53.720Z,3.47
2023-05-10T02:17:58.598Z,3.60
2023-05-10T02:28:04.493Z,3.50
2023-05-10T02:38:08.528Z,3.50
2023-05-10T02:48:11.284Z,2.75
2023-05-10T02:58:13.787Z,3.80
2023-05-10T03:08:16.294Z,3.00
2023-05-10T03:18:34.893Z,2.93
2023-05-10T03:28:39.473Z,3.30
2023-05-10T03:38:42.869Z,3.50
2023-05-10T03:48:45.570Z,2.83
2023-05-10T03:58:48.278Z,3.30
2023-05-10T04:08:50.853Z,3.77
2023-05-10T04:18:54.141Z,4.03
2023-05-10T04:28:56.656Z,4.10
2023-05-10T04:38:59.337Z,4.77
2023-05-10T04:49:02.144Z,4.47
2023-05-10T04:59:04.707Z,4.63
2023-05-10T05:09:07.362Z,4.65
2023-05-10T05:19:09.902Z,6.30
2023-05-10T05:29:14.024Z,6.33
2023-05-10T05:39:16.973Z,4.55
2023-05-10T05:49:19.496Z,4.20
2023-05-10T05:59:22.837Z,4.20
2023-05-10T06:09:25.652Z,4.63
2023-05-10T06:19:28.345Z,4.53
2023-05-10T06:29:30.818Z,4.00
2023-05-10T06:39:33.597Z,5.37
2023-05-10T06:49:36.546Z,4.68
2023-05-10T06:59:39.134Z,3.87
2023-05-10T07:09:41.809Z,3.50
2023-05-10T07:19:44.368Z,4.13
2023-05-10T07:29:46.954Z,4.23
2023-05-10T07:39:49.410Z,3.67
2023-05-10T07:49:52.031Z,2.92
2023-05-10T07:59:54.526Z,2.40
2023-05-10T08:09:57.178Z,2.30
2023-05-10T08:19:59.702Z,2.33
2023-05-10T08:30:02.176Z,1.83
2023-05-10T08:40:05.207Z,1.87
2023-05-10T08:50:08.585Z,1.80
2023-05-10T09:00:12.236Z,1.90
2023-05-10T09:10:16.361Z,2.00
2023-05-10T09:20:18.816Z,1.77
2023-05-10T09:30:27.454Z,1.50
2023-05-10T09:40:31.126Z,1.60
2023-05-10T09:50:35.226Z,1.40
2023-05-10T10:00:40.164Z,1.60
2023-05-10T10:10:46.387Z,1.55
2023-05-10T10:20:49.208Z,1.37
2023-05-10T10:30:55.771Z,1.50
2023-05-10T10:41:11.818Z,1.80
2023-05-10T10:51:14.703Z,2.10
2023-05-10T11:01:19.685Z,1.87
2023-05-10T11:11:23.571Z,2.20
2023-05-10T11:21:26.007Z,2.30
2023-05-10T11:31:29.344Z,2.60
2023-05-10T11:41:32.700Z,1.90
2023-05-10T11:51:40.381Z,2.43
2023-05-10T12:01:43.134Z,2.67
2023-05-10T12:11:46.065Z,3.25
2023-05-10T12:21:49.259Z,3.13
2023-05-10T12:31:51.833Z,2.90
2023-05-10T12:41:54.354Z,2.17
2023-05-10T12:51:56.807Z,2.10
2023-05-10T13:01:59.305Z,1.77
2023-05-10T13:12:02.054Z,1.58
2023-05-10T13:22:04.849Z,2.27
2023-05-10T13:32:07.508Z,1.70
2023-05-10T13:42:09.980Z,2.00
2023-05-10T13:52:13.064Z,1.90
2023-05-10T14:02:15.547Z,1.40
2023-05-10T14:12:17.983Z,2.00
2023-05-10T14:22:20.522Z,1.97
2023-05-10T14:32:23.037Z,1.75
2023-05-10T14:42:25.477Z,1.90
2023-05-10T14:52:27.926Z,1.63
2023-05-10T15:02:32.315Z,1.92
2023-05-10T15:12:35.329Z,1.43
2023-05-10T15:22:37.863Z,2.17
2023-05-10T15:32:41.212Z,1.50
2023-05-10T15:42:43.815Z,1.40
2023-05-10T15:52:46.382Z,1.90
2023-05-10T16:02:49.220Z,1.50
2023-05-10T16:12:51.978Z,1.60
2023-05-10T16:22:54.470Z,1.67
2023-05-10T16:32:58.181Z,1.87
2023-05-10T16:43:00.819Z,1.85
2023-05-10T16:53:03.374Z,1.93
2023-05-10T17:03:06.210Z,2.07
2023-05-10T17:13:10.415Z,1.83
2023-05-10T17:23:13.355Z,2.13
2023-05-10T17:33:15.911Z,2.70
2023-05-10T17:43:18.423Z,2.72
2023-05-10T17:53:20.807Z,2.77
2023-05-10T18:03:23.786Z,2.20
2023-05-10T18:13:26.648Z,2.80
2023-05-10T18:23:29.058Z,2.07
2023-05-10T18:33:31.708Z,1.73
2023-05-10T18:43:34.515Z,1.90
2023-05-10T18:53:37.381Z,1.65
2023-05-10T19:03:39.928Z,1.67
2023-05-10T19:13:42.905Z,2.17
2023-05-10T19:23:46.191Z,3.28
2023-05-10T19:33:49.163Z,2.37
2023-05-10T19:43:52.764Z,2.17
2023-05-10T19:53:55.486Z,2.10
2023-05-10T20:03:58.022Z,2.37
2023-05-10T20:14:00.470Z,2.30
2023-05-10T20:24:03.067Z,2.10
2023-05-10T20:34:05.805Z,2.35
2023-05-10T20:44:08.500Z,2.03
2023-05-10T20:54:10.951Z,2.17
2023-05-10T21:04:13.405Z,2.42
2023-05-10T21:14:16.500Z,2.10
2023-05-10T21:24:18.924Z,2.60
2023-05-10T21:34:21.466Z,2.33
2023-05-10T21:44:23.967Z,2.10
2023-05-10T21:54:26.403Z,1.90
2023-05-10T22:04:28.854Z,1.90
2023-05-10T22:14:31.296Z,1.90
2023-05-10T22:24:33.855Z,2.50
2023-05-10T22:34:36.581Z,2.03
2023-05-10T22:44:39.135Z,2.20
2023-05-10T22:54:41.653Z,1.90
2023-05-10T23:04:44.183Z,2.10
2023-05-10T23:14:47.665Z,2.22
2023-05-10T23:24:50.172Z,2.40
2023-05-10T23:34:53.299Z,2.37
2023-05-10T23:44:55.865Z,2.30
2023-05-10T23:55:54.268Z,1.98
